createdAt,value
2022-12-22T00:02:11.795Z,16.63
2022-12-22T00:04:55.960Z,17.50
2022-12-22T00:07:37.875Z,15.70
2022-12-22T00:10:24.121Z,16.07
2022-12-22T00:13:06.063Z,13.90
2022-12-22T00:15:50.201Z,16.70
2022-12-22T00:18:32.528Z,17.47
2022-12-22T00:21:14.561Z,16.40
2022-12-22T00:23:56.494Z,16.07
2022-12-22T00:26:41.906Z,17.23
2022-12-22T00:29:28.185Z,17.17
2022-12-22T00:32:10.195Z,16.27
2022-12-22T00:34:56.127Z,18.33
2022-12-22T00:37:38.081Z,17.53
2022-12-22T00:40:31.663Z,13.60
2022-12-22T00:43:16.241Z,15.13
2022-12-22T00:45:58.241Z,9.03
2022-12-22T00:48:41.226Z,13.03
2022-12-22T00:51:23.963Z,13.33
2022-12-22T00:54:06.062Z,16.37
2022-12-22T00:56:48.334Z,13.90
2022-12-22T00:59:32.842Z,14.73
2022-12-22T01:02:15.016Z,13.60
2022-12-22T01:04:57.100Z,15.23
2022-12-22T01:07:40.910Z,15.60
2022-12-22T01:10:27.834Z,14.40
2022-12-22T01:13:09.698Z,14.87
2022-12-22T01:15:54.316Z,14.17
2022-12-22T01:18:36.607Z,14.30
2022-12-22T01:21:19.330Z,14.67
2022-12-22T01:24:01.628Z,15.80
2022-12-22T01:26:43.731Z,16.63
2022-12-22T01:29:25.638Z,13.93
2022-12-22T01:32:10.216Z,14.30
2022-12-22T01:34:52.542Z,15.83
2022-12-22T01:37:34.519Z,16.90
2022-12-22T01:40:16.409Z,16.70
2022-12-22T01:42:58.296Z,16.87
2022-12-22T01:45:42.198Z,12.87
2022-12-22T01:48:31.025Z,17.17
2022-12-22T01:51:13.423Z,17.47
2022-12-22T01:53:55.315Z,15.43
2022-12-22T01:56:37.380Z,17.70
2022-12-22T01:59:19.845Z,16.20
2022-12-22T02:02:01.953Z,17.50
2022-12-22T02:04:50.976Z,16.37
2022-12-22T02:07:42.695Z,18.10
2022-12-22T02:10:35.394Z,17.93
2022-12-22T02:13:23.788Z,17.60
2022-12-22T02:16:09.773Z,18.00
2022-12-22T02:18:57.357Z,17.93
2022-12-22T02:21:44.418Z,19.80
2022-12-22T02:24:41.170Z,16.47
2022-12-22T02:27:25.780Z,18.67
2022-12-22T02:30:09.184Z,20.13
2022-12-22T02:32:53.187Z,19.13
2022-12-22T02:35:35.352Z,18.80
2022-12-22T02:38:22.334Z,17.27
2022-12-22T02:41:10.756Z,16.90
2022-12-22T02:44:08.784Z,18.40
2022-12-22T02:46:56.294Z,17.60
2022-12-22T02:49:41.027Z,18.50
2022-12-22T02:52:28.137Z,18.20
2022-12-22T02:55:10.254Z,18.40
2022-12-22T02:57:52.147Z,16.47
2022-12-22T03:00:37.273Z,15.00
2022-12-22T03:03:19.572Z,16.50
2022-12-22T03:06:01.765Z,16.60
2022-12-22T03:08:43.656Z,14.87
2022-12-22T03:11:25.838Z,17.17
2022-12-22T03:14:07.830Z,16.70
2022-12-22T03:16:52.313Z,14.77
2022-12-22T03:19:34.165Z,13.90
2022-12-22T03:22:16.082Z,13.17
2022-12-22T03:24:58.020Z,13.83
2022-12-22T03:27:27.501Z,14.30
2022-12-22T03:29:56.924Z,14.27
2022-12-22T03:32:28.931Z,13.00
2022-12-22T03:34:58.505Z,13.60
2022-12-22T03:37:27.900Z,14.57
2022-12-22T03:40:00.169Z,15.60
2022-12-22T03:42:42.077Z,14.40
2022-12-22T03:45:25.281Z,14.80
2022-12-22T03:47:57.428Z,14.17
2022-12-22T03:50:26.895Z,14.30
2022-12-22T03:52:56.498Z,13.80
2022-12-22T03:55:25.909Z,14.73
2022-12-22T03:57:55.336Z,14.00
2022-12-22T04:00:25.069Z,14.90
2022-12-22T04:02:57.197Z,13.40
2022-12-22T04:05:26.670Z,15.60
2022-12-22T04:07:56.160Z,12.07
2022-12-22T04:10:38.078Z,13.27
2022-12-22T04:13:07.505Z,14.40
2022-12-22T04:15:36.889Z,14.60
2022-12-22T04:18:11.361Z,13.93
2022-12-22T04:20:40.777Z,14.67
2022-12-22T04:23:10.185Z,14.93
2022-12-22T04:25:39.656Z,15.60
2022-12-22T04:28:10.160Z,16.30
2022-12-22T04:30:39.582Z,15.80
2022-12-22T04:33:11.528Z,15.10
2022-12-22T04:35:41.170Z,15.23
2022-12-22T04:38:10.597Z,16.03
2022-12-22T04:40:40.180Z,16.57
2022-12-22T04:43:09.740Z,15.07
2022-12-22T04:45:39.299Z,16.03
2022-12-22T04:48:11.469Z,15.47
2022-12-22T04:50:40.858Z,16.07
2022-12-22T04:53:10.245Z,16.20
2022-12-22T04:55:39.892Z,16.20
2022-12-22T04:58:09.512Z,17.57
2022-12-22T05:00:38.896Z,18.67
2022-12-22T05:03:11.203Z,18.43
2022-12-22T05:05:40.746Z,18.10
2022-12-22T05:08:10.130Z,17.67
2022-12-22T05:10:42.660Z,18.00
2022-12-22T05:13:12.115Z,17.90
2022-12-22T05:15:41.527Z,17.50
2022-12-22T05:18:13.748Z,16.43
2022-12-22T05:20:43.189Z,19.50
2022-12-22T05:23:12.770Z,17.40
2022-12-22T05:25:42.317Z,16.10
2022-12-22T05:28:11.692Z,16.23
2022-12-22T05:30:43.794Z,15.93
2022-12-22T05:33:15.838Z,16.90
2022-12-22T05:35:45.269Z,17.07
2022-12-22T05:38:15.094Z,16.50
2022-12-22T05:40:44.472Z,15.40
2022-12-22T05:43:14.136Z,16.80
2022-12-22T05:45:43.840Z,16.93
2022-12-22T05:48:18.841Z,17.10
2022-12-22T05:50:52.035Z,16.93
2022-12-22T05:53:21.477Z,15.40
2022-12-22T05:55:52.433Z,15.17
2022-12-22T05:58:21.819Z,16.30
2022-12-22T06:00:51.241Z,15.27
2022-12-22T06:03:23.371Z,14.80
2022-12-22T06:05:53.174Z,13.73
2022-12-22T06:08:22.898Z,15.93
2022-12-22T06:10:52.434Z,15.47
2022-12-22T06:13:22.068Z,15.73
2022-12-22T06:15:51.800Z,16.93
2022-12-22T06:18:24.430Z,15.30
2022-12-22T06:20:54.359Z,17.47
2022-12-22T06:23:23.807Z,16.23
2022-12-22T06:25:57.829Z,16.77
2022-12-22T06:28:27.308Z,16.57
2022-12-22T06:30:56.962Z,17.90
2022-12-22T06:33:29.029Z,16.70
2022-12-22T06:35:59.648Z,15.80
2022-12-22T06:38:29.740Z,17.30
2022-12-22T06:40:59.229Z,19.00
2022-12-22T06:43:26.651Z,16.30
2022-12-22T06:45:58.719Z,19.00
2022-12-22T06:48:31.008Z,20.10
2022-12-22T06:51:01.112Z,17.73
2022-12-22T06:53:30.507Z,20.50
2022-12-22T06:56:00.101Z,20.17
2022-12-22T06:58:29.515Z,21.07
2022-12-22T07:00:59.193Z,20.83
2022-12-22T07:03:31.382Z,20.23
2022-12-22T07:06:00.819Z,22.00
2022-12-22T07:08:30.266Z,19.00
2022-12-22T07:11:02.527Z,17.37
2022-12-22T07:13:34.533Z,19.73
2022-12-22T07:16:04.582Z,34.53
2022-12-22T07:18:38.265Z,20.97
2022-12-22T07:21:09.688Z,21.90
2022-12-22T07:23:39.634Z,21.40
2022-12-22T07:26:10.109Z,21.70
2022-12-22T07:28:40.804Z,20.90
2022-12-22T07:31:10.787Z,21.47
2022-12-22T07:33:43.183Z,22.07
2022-12-22T07:36:14.509Z,21.37
2022-12-22T07:38:46.427Z,20.30
2022-12-22T07:41:30.180Z,20.60
2022-12-22T07:44:01.242Z,21.47
2022-12-22T07:46:35.330Z,22.13
2022-12-22T07:49:20.673Z,22.47
2022-12-22T07:51:53.434Z,19.10
2022-12-22T07:54:22.801Z,21.43
2022-12-22T07:56:52.260Z,20.60
2022-12-22T07:59:21.946Z,21.47
2022-12-22T08:01:51.645Z,21.13
2022-12-22T08:04:24.283Z,18.90
2022-12-22T08:06:54.099Z,20.30
2022-12-22T08:09:23.648Z,21.87
2022-12-22T08:11:53.075Z,18.83
2022-12-22T08:14:22.502Z,20.43
2022-12-22T08:16:52.142Z,18.33
2022-12-22T08:19:24.160Z,20.20
2022-12-22T08:21:53.681Z,17.77
2022-12-22T08:24:23.295Z,18.73
2022-12-22T08:26:55.338Z,17.90
2022-12-22T08:29:27.143Z,16.93
2022-12-22T08:31:57.844Z,16.73
2022-12-22T08:34:30.346Z,17.13
2022-12-22T08:37:02.775Z,15.93
2022-12-22T08:39:35.692Z,17.27
2022-12-22T08:42:07.076Z,17.67
2022-12-22T08:44:36.571Z,16.00
2022-12-22T08:47:07.983Z,16.17
2022-12-22T08:49:43.561Z,15.87
2022-12-22T08:52:18.034Z,14.53
2022-12-22T08:54:48.554Z,14.87
2022-12-22T08:57:18.056Z,14.10
2022-12-22T08:59:48.175Z,14.57
2022-12-22T09:02:17.800Z,13.47
2022-12-22T09:04:49.923Z,13.60
2022-12-22T09:07:19.761Z,11.83
2022-12-22T09:09:49.358Z,11.50
2022-12-22T09:12:18.963Z,13.17
2022-12-22T09:14:48.351Z,13.73
2022-12-22T09:17:17.894Z,23.57
2022-12-22T09:19:49.947Z,13.00
2022-12-22T09:22:26.740Z,17.13
2022-12-22T09:24:57.720Z,27.10
2022-12-22T09:27:27.280Z,13.40
2022-12-22T09:29:57.393Z,12.90
2022-12-22T09:32:27.137Z,11.47
2022-12-22T09:34:59.130Z,12.10
2022-12-22T09:37:28.883Z,14.60
2022-12-22T09:39:58.360Z,15.13
2022-12-22T09:42:27.888Z,11.70
2022-12-22T09:44:57.389Z,10.70
2022-12-22T09:47:30.967Z,11.37
2022-12-22T09:50:06.412Z,11.73
2022-12-22T09:52:46.034Z,15.00
2022-12-22T09:55:18.567Z,17.63
2022-12-22T09:57:48.204Z,14.03
2022-12-22T10:00:21.444Z,16.00
2022-12-22T10:02:55.883Z,15.80
2022-12-22T10:05:38.464Z,13.93
2022-12-22T10:08:13.726Z,15.57
2022-12-22T10:10:43.395Z,14.97
2022-12-22T10:13:19.947Z,15.50
2022-12-22T10:15:50.214Z,18.50
2022-12-22T10:18:23.147Z,16.63
2022-12-22T10:21:12.025Z,4.87
2022-12-22T10:23:43.245Z,16.20
2022-12-22T10:26:31.502Z,19.47
2022-12-22T10:29:06.482Z,17.80
2022-12-22T10:31:37.006Z,17.17
2022-12-22T10:34:15.653Z,15.87
2022-12-22T10:36:50.542Z,17.13
2022-12-22T10:39:24.373Z,23.10
2022-12-22T10:41:55.270Z,18.00
2022-12-22T10:44:26.584Z,21.17
2022-12-22T10:46:57.284Z,15.63
2022-12-22T10:49:29.247Z,18.13
2022-12-22T10:52:13.311Z,16.93
2022-12-22T10:54:44.758Z,22.50
2022-12-22T10:57:28.975Z,18.13
2022-12-22T10:59:59.800Z,17.60
2022-12-22T11:02:32.708Z,17.80
2022-12-22T11:05:08.071Z,17.17
2022-12-22T11:07:42.811Z,17.67
2022-12-22T11:10:21.325Z,15.80
2022-12-22T11:13:03.531Z,18.70
2022-12-22T11:15:37.365Z,16.73
2022-12-22T11:18:16.889Z,16.27
2022-12-22T11:20:54.660Z,17.27
2022-12-22T11:23:31.253Z,17.50
2022-12-22T11:26:10.483Z,17.30
2022-12-22T11:28:53.998Z,17.87
2022-12-22T11:31:33.905Z,19.27
2022-12-22T11:34:09.601Z,18.57
2022-12-22T11:36:52.865Z,19.60
2022-12-22T11:39:35.897Z,14.17
2022-12-22T11:42:12.014Z,16.20
2022-12-22T11:44:44.686Z,27.20
2022-12-22T11:47:21.152Z,17.43
2022-12-22T11:50:58.120Z,15.53
2022-12-22T11:53:37.280Z,16.83
2022-12-22T11:56:20.908Z,12.27
2022-12-22T11:59:02.193Z,15.17
2022-12-22T12:01:43.548Z,13.27
2022-12-22T12:04:32.324Z,13.93
2022-12-22T12:07:25.710Z,14.30
2022-12-22T12:10:01.774Z,13.03
2022-12-22T12:12:42.028Z,12.97
2022-12-22T12:15:23.864Z,13.30
2022-12-22T12:18:05.924Z,12.03
2022-12-22T12:20:46.283Z,13.87
2022-12-22T12:23:26.226Z,13.87
2022-12-22T12:26:01.847Z,13.20
2022-12-22T12:28:43.135Z,11.97
2022-12-22T12:31:16.701Z,12.93
2022-12-22T12:33:52.269Z,13.67
2022-12-22T12:36:26.560Z,12.87
2022-12-22T12:39:07.920Z,12.87
2022-12-22T12:41:43.510Z,12.53
2022-12-22T12:44:17.931Z,13.33
2022-12-22T12:46:59.891Z,11.80
2022-12-22T12:49:54.419Z,12.50
2022-12-22T12:52:53.722Z,11.20
2022-12-22T12:55:31.852Z,12.07
2022-12-22T12:58:03.552Z,13.33
2022-12-22T13:00:55.474Z,12.23
2022-12-22T13:06:53.471Z,8.83
2022-12-22T13:12:37.377Z,9.83
2022-12-22T13:15:07.451Z,7.97
2022-12-22T13:17:43.602Z,7.03
2022-12-22T13:20:18.190Z,8.00
2022-12-22T13:22:48.544Z,7.53
2022-12-22T13:25:18.879Z,8.27
2022-12-22T13:27:48.780Z,9.23
2022-12-22T13:30:21.369Z,9.40
2022-12-22T13:32:53.757Z,8.73
2022-12-22T13:35:31.473Z,5.37
2022-12-22T13:38:01.388Z,7.60
2022-12-22T13:40:33.380Z,14.83
2022-12-22T13:43:05.197Z,10.67
2022-12-22T13:45:39.448Z,7.37
2022-12-22T13:48:16.160Z,5.60
2022-12-22T13:50:48.216Z,11.53
2022-12-22T13:53:58.034Z,7.13
2022-12-22T13:56:11.713Z,5.90
2022-12-22T13:58:45.100Z,5.30
2022-12-22T14:01:21.073Z,5.83
2022-12-22T14:04:00.970Z,6.70
2022-12-22T14:06:33.099Z,5.83
2022-12-22T14:09:18.107Z,5.87
2022-12-22T14:11:52.332Z,7.00
2022-12-22T14:14:26.036Z,6.20
2022-12-22T14:16:57.627Z,6.23
2022-12-22T14:19:33.779Z,7.00
2022-12-22T14:22:08.401Z,6.37
2022-12-22T14:24:43.737Z,6.50
2022-12-22T14:27:20.460Z,7.20
2022-12-22T14:29:51.097Z,6.93
2022-12-22T14:32:37.775Z,6.30
2022-12-22T14:35:19.519Z,6.17
2022-12-22T14:37:49.094Z,7.10
2022-12-22T14:40:32.452Z,6.90
2022-12-22T14:43:03.411Z,6.77
2022-12-22T14:45:32.971Z,7.43
2022-12-22T14:48:02.459Z,6.97
2022-12-22T14:50:34.879Z,7.03
2022-12-22T14:53:05.365Z,7.13
2022-12-22T14:55:37.940Z,6.67
2022-12-22T14:58:09.645Z,7.77
2022-12-22T15:00:40.755Z,7.50
2022-12-22T15:03:32.713Z,7.17
2022-12-22T15:06:34.740Z,7.40
2022-12-22T15:12:19.232Z,8.80
2022-12-22T15:14:49.881Z,7.97
2022-12-22T15:17:29.010Z,7.90
2022-12-22T15:20:00.607Z,7.47
2022-12-22T15:22:32.962Z,7.90
2022-12-22T15:25:02.663Z,7.33
2022-12-22T15:27:34.388Z,8.20
2022-12-22T15:30:03.899Z,7.10
2022-12-22T15:32:37.857Z,7.50
2022-12-22T15:35:17.523Z,6.90
2022-12-22T15:37:49.914Z,6.40
2022-12-22T15:40:21.811Z,8.60
2022-12-22T15:42:52.149Z,7.40
2022-12-22T15:45:23.258Z,6.60
2022-12-22T15:47:55.092Z,7.30
2022-12-22T15:50:26.874Z,8.23
2022-12-22T15:53:00.666Z,8.30
2022-12-22T15:55:30.839Z,8.00
2022-12-22T15:58:01.656Z,8.03
2022-12-22T16:00:31.212Z,7.63
2022-12-22T16:03:00.709Z,8.97
2022-12-22T16:05:30.308Z,8.20
2022-12-22T16:08:03.489Z,7.07
2022-12-22T16:10:34.688Z,6.80
2022-12-22T16:13:04.902Z,8.13
2022-12-22T16:15:36.354Z,8.20
2022-12-22T16:18:06.508Z,7.57
2022-12-22T16:20:40.457Z,9.60
2022-12-22T16:23:16.249Z,10.67
2022-12-22T16:25:47.652Z,8.47
2022-12-22T16:28:19.542Z,8.50
2022-12-22T16:30:49.456Z,8.90
2022-12-22T16:33:19.555Z,8.63
2022-12-22T16:35:49.156Z,8.63
2022-12-22T16:38:21.974Z,9.43
2022-12-22T16:40:53.756Z,8.27
2022-12-22T16:46:09.927Z,7.70
2022-12-22T16:48:43.103Z,8.67
2022-12-22T16:51:18.334Z,8.60
2022-12-22T16:53:50.563Z,9.00
2022-12-22T16:56:22.052Z,8.10
2022-12-22T16:58:54.847Z,10.50
2022-12-22T17:01:32.844Z,9.73
2022-12-22T17:04:05.107Z,8.80
2022-12-22T17:06:34.741Z,10.47
2022-12-22T17:09:11.214Z,9.77
2022-12-22T17:11:40.799Z,9.97
2022-12-22T17:14:18.687Z,9.23
2022-12-22T17:16:48.181Z,8.30
2022-12-22T17:19:17.651Z,8.77
2022-12-22T17:21:47.268Z,8.30
2022-12-22T17:24:25.934Z,8.27
2022-12-22T17:26:57.354Z,9.33
2022-12-22T17:29:26.878Z,7.73
2022-12-22T17:31:57.294Z,8.43
2022-12-22T17:34:26.940Z,8.70
2022-12-22T17:36:58.890Z,8.60
2022-12-22T17:39:32.675Z,9.13
2022-12-22T17:42:02.131Z,7.30
2022-12-22T17:44:32.635Z,8.37
2022-12-22T17:47:02.559Z,8.70
2022-12-22T17:49:32.166Z,8.20
2022-12-22T17:52:01.790Z,7.63
2022-12-22T17:54:34.159Z,8.67
2022-12-22T17:57:05.618Z,9.10
2022-12-22T17:59:35.080Z,8.00
2022-12-22T18:02:04.684Z,7.20
2022-12-22T18:04:34.227Z,8.63
2022-12-22T18:07:03.711Z,9.13
2022-12-22T18:09:35.893Z,8.70
2022-12-22T18:12:12.389Z,9.70
2022-12-22T18:14:41.894Z,9.47
2022-12-22T18:17:23.400Z,7.77
2022-12-22T18:19:53.383Z,8.23
2022-12-22T18:22:24.092Z,8.40
2022-12-22T18:24:57.129Z,9.17
2022-12-22T18:27:26.966Z,9.53
2022-12-22T18:29:59.813Z,9.97
2022-12-22T18:32:29.242Z,9.73
2022-12-22T18:34:58.734Z,9.17
2022-12-22T18:37:28.260Z,9.23
2022-12-22T18:40:00.254Z,9.37
2022-12-22T18:42:29.650Z,11.83
2022-12-22T18:44:59.182Z,10.73
2022-12-22T18:47:28.667Z,22.37
2022-12-22T18:50:02.902Z,11.60
2022-12-22T18:52:33.238Z,10.60
2022-12-22T18:55:05.252Z,10.63
2022-12-22T18:57:34.627Z,9.87
2022-12-22T19:00:09.712Z,10.27
2022-12-22T19:02:43.032Z,10.33
2022-12-22T19:05:18.118Z,9.70
2022-12-22T19:07:48.278Z,12.20
2022-12-22T19:10:23.186Z,12.23
2022-12-22T19:12:55.468Z,12.50
2022-12-22T19:15:28.784Z,12.50
2022-12-22T19:17:58.347Z,12.53
2022-12-22T19:20:28.499Z,12.50
2022-12-22T19:22:58.118Z,11.33
2022-12-22T19:25:31.696Z,13.70
2022-12-22T19:28:08.095Z,12.40
2022-12-22T19:30:37.609Z,12.27
2022-12-22T19:33:07.425Z,11.10
2022-12-22T19:35:37.039Z,11.90
2022-12-22T19:38:20.136Z,12.50
2022-12-22T19:40:52.743Z,13.10
2022-12-22T19:43:22.304Z,12.60
2022-12-22T19:45:54.524Z,11.73
2022-12-22T19:48:25.516Z,12.23
2022-12-22T19:50:56.176Z,11.93
2022-12-22T19:53:26.627Z,12.57
2022-12-22T19:55:59.404Z,13.23
2022-12-22T19:58:30.940Z,11.60
2022-12-22T20:01:00.500Z,13.40
2022-12-22T20:03:30.085Z,12.30
2022-12-22T20:05:59.605Z,11.27
2022-12-22T20:08:29.572Z,10.30
2022-12-22T20:11:02.383Z,11.70
2022-12-22T20:13:34.467Z,11.77
2022-12-22T20:16:03.986Z,12.57
2022-12-22T20:18:33.537Z,11.27
2022-12-22T20:21:04.479Z,11.80
2022-12-22T20:23:38.006Z,12.10
2022-12-22T20:26:15.183Z,12.57
2022-12-22T20:28:45.091Z,11.70
2022-12-22T20:31:16.517Z,11.27
2022-12-22T20:33:46.192Z,12.67
2022-12-22T20:36:22.185Z,11.93
2022-12-22T20:38:52.599Z,12.60
2022-12-22T20:41:24.909Z,12.13
2022-12-22T20:43:54.565Z,12.43
2022-12-22T20:46:26.547Z,11.40
2022-12-22T20:48:58.084Z,12.80
2022-12-22T20:51:29.454Z,13.70
2022-12-22T20:53:59.873Z,11.80
2022-12-22T20:56:33.830Z,12.30
2022-12-22T20:59:09.996Z,12.50
2022-12-22T21:01:39.658Z,13.20
2022-12-22T21:04:09.371Z,13.47
2022-12-22T21:06:40.828Z,14.70
2022-12-22T21:09:10.296Z,14.13
2022-12-22T21:11:42.457Z,13.13
2022-12-22T21:14:12.678Z,13.10
2022-12-22T21:16:42.872Z,13.77
2022-12-22T21:19:18.711Z,13.80
2022-12-22T21:21:48.337Z,14.70
2022-12-22T21:24:18.687Z,13.00
2022-12-22T21:26:53.435Z,14.80
2022-12-22T21:29:24.290Z,15.50
2022-12-22T21:31:54.057Z,14.43
2022-12-22T21:34:23.748Z,15.20
2022-12-22T21:36:57.724Z,14.80
2022-12-22T21:39:32.514Z,16.03
2022-12-22T21:42:05.209Z,14.40
2022-12-22T21:44:36.369Z,14.50
2022-12-22T21:47:06.002Z,15.20
2022-12-22T21:49:36.358Z,14.33
2022-12-22T21:52:05.890Z,13.67
2022-12-22T21:54:35.297Z,16.97
2022-12-22T21:57:07.396Z,14.27
2022-12-22T21:59:36.931Z,14.87
2022-12-22T22:02:06.516Z,14.23
2022-12-22T22:04:36.003Z,15.83
2022-12-22T22:07:05.515Z,16.43
2022-12-22T22:09:35.021Z,15.07
2022-12-22T22:12:24.788Z,15.07
2022-12-22T22:14:57.519Z,16.33
2022-12-22T22:17:27.005Z,15.90
2022-12-22T22:19:56.476Z,15.00
2022-12-22T22:22:25.985Z,16.13
2022-12-22T22:24:55.490Z,14.37
2022-12-22T22:27:27.499Z,17.13
2022-12-22T22:29:57.302Z,17.30
2022-12-22T22:32:26.772Z,15.03
2022-12-22T22:34:56.308Z,14.63
2022-12-22T22:37:25.884Z,16.03
2022-12-22T22:39:55.423Z,17.20
2022-12-22T22:42:27.513Z,15.80
2022-12-22T22:44:56.981Z,14.90
2022-12-22T22:47:26.515Z,16.17
2022-12-22T22:49:56.296Z,14.80
2022-12-22T22:52:25.774Z,15.70
2022-12-22T22:54:55.215Z,16.43
2022-12-22T22:57:27.381Z,14.50
2022-12-22T22:59:56.937Z,16.33
2022-12-22T23:02:26.920Z,17.20
2022-12-22T23:04:56.584Z,16.90
2022-12-22T23:07:26.178Z,16.07
2022-12-22T23:09:55.633Z,16.10
2022-12-22T23:12:27.748Z,17.53
2022-12-22T23:14:57.384Z,17.40
2022-12-22T23:17:26.909Z,17.47
2022-12-22T23:19:56.405Z,17.17
2022-12-22T23:22:25.925Z,17.53
2022-12-22T23:24:55.393Z,18.97
2022-12-22T23:27:27.411Z,17.20
2022-12-22T23:29:56.922Z,18.00
2022-12-22T23:32:26.406Z,19.17
2022-12-22T23:34:55.931Z,18.20
2022-12-22T23:37:25.462Z,18.03
2022-12-22T23:39:56.126Z,20.17
2022-12-22T23:42:33.839Z,19.33
2022-12-22T23:45:03.378Z,20.37
2022-12-22T23:47:32.745Z,19.00
2022-12-22T23:50:02.246Z,17.57
2022-12-22T23:52:31.659Z,19.23
2022-12-22T23:55:01.075Z,20.77
2022-12-22T23:57:33.122Z,19.90
